Orbital elements of FENGYUN 1C DEB
| Launched | 9 May 1999 |
| Flight ended | – |
| Launch site | Taiyuan Space Center, PRC |
| Owner | People's Republic of China |
| NORAD ID | 31196 |
| Date fetched |
Epoch osculation |
Inc. [°] |
Ecc. | RA asc node [hr] |
Arg Peri. [°] |
Mean anom [°] |
Mean motion [rev/day] |
Abs. mag |
| Date fetched |
Epoch osculation |
Inc. [°] |
Ecc. | RA asc node [hr] |
Arg Peri. [°] |
Mean anom [°] |
Mean motion [rev/day] |
Abs. mag |
| 2026 May 05 17:57 | 2026 May 04 06:31:41 | 98.5219 | 0.00588 | 9.2385 | 154.8591 | 205.5471 | 14.25828 | – |
| 2026 May 04 17:57 | 2026 Apr 29 06:56:57 | 98.5205 | 0.00585 | 8.9154 | 169.3509 | 205.5471 | 14.25828 | – |
| 2026 May 03 17:57 | 2026 Apr 29 06:56:57 | 98.5205 | 0.00585 | 8.9154 | 169.3509 | 205.5471 | 14.25828 | – |
| 2026 May 02 17:57 | 2026 Apr 29 06:56:57 | 98.5205 | 0.00585 | 8.9154 | 169.3509 | 205.5471 | 14.25828 | – |
| 2026 May 01 17:56 | 2026 Apr 29 06:56:57 | 98.5205 | 0.00585 | 8.9154 | 169.3509 | 205.5471 | 14.25828 | – |
| 2026 Apr 30 17:56 | 2026 Apr 29 06:56:57 | 98.5205 | 0.00585 | 8.9154 | 169.3509 | 205.5471 | 14.25828 | – |
| 2026 Apr 29 17:57 | 2026 Apr 21 18:44:14 | 98.5206 | 0.00580 | 8.4285 | 191.2723 | 205.5471 | 14.25828 | – |
| 2026 Apr 28 17:56 | 2026 Apr 21 18:44:14 | 98.5206 | 0.00580 | 8.4285 | 191.2723 | 205.5471 | 14.25828 | – |
| 2026 Apr 27 17:58 | 2026 Apr 21 18:44:14 | 98.5206 | 0.00580 | 8.4285 | 191.2723 | 205.5471 | 14.25828 | – |
| 2026 Apr 26 17:58 | 2026 Apr 21 18:44:14 | 98.5206 | 0.00580 | 8.4285 | 191.2723 | 205.5471 | 14.25828 | – |
| 2026 Apr 25 17:58 | 2026 Apr 21 18:44:14 | 98.5206 | 0.00580 | 8.4285 | 191.2723 | 205.5471 | 14.25828 | – |
| 2026 Apr 24 17:59 | 2026 Apr 21 18:44:14 | 98.5206 | 0.00580 | 8.4285 | 191.2723 | 205.5471 | 14.25828 | – |
| 2026 Apr 23 17:57 | 2026 Apr 17 18:44:09 | 98.5229 | 0.00576 | 8.1693 | 203.1253 | 205.5471 | 14.25828 | – |
| 2026 Apr 22 17:57 | 2026 Apr 17 18:44:09 | 98.5229 | 0.00576 | 8.1693 | 203.1253 | 205.5471 | 14.25828 | – |
| 2026 Apr 21 17:57 | 2026 Apr 17 18:44:09 | 98.5229 | 0.00576 | 8.1693 | 203.1253 | 205.5471 | 14.25828 | – |
| 2026 Apr 20 17:57 | 2026 Apr 17 18:44:09 | 98.5229 | 0.00576 | 8.1693 | 203.1253 | 205.5471 | 14.25828 | – |
| 2026 Apr 19 17:58 | 2026 Apr 17 18:44:09 | 98.5229 | 0.00576 | 8.1693 | 203.1253 | 205.5471 | 14.25828 | – |
| 2026 Apr 18 17:56 | 2026 Apr 13 06:56:40 | 98.5224 | 0.00573 | 7.8780 | 216.3678 | 205.5471 | 14.25828 | – |
| 2026 Apr 16 17:57 | 2026 Apr 13 06:56:40 | 98.5224 | 0.00573 | 7.8780 | 216.3678 | 205.5471 | 14.25828 | – |
| 2026 Apr 14 17:57 | 2026 Apr 13 06:56:40 | 98.5224 | 0.00573 | 7.8780 | 216.3678 | 205.5471 | 14.25828 | – |
| 2026 Apr 13 17:57 | 2026 Apr 13 06:56:40 | 98.5224 | 0.00573 | 7.8780 | 216.3678 | 205.5471 | 14.25828 | – |
| 2026 Apr 12 17:57 | 2026 Apr 08 07:21:47 | 98.5221 | 0.00571 | 7.5548 | 231.0335 | 205.5471 | 14.25828 | – |
| 2026 Apr 11 17:57 | 2026 Apr 08 07:21:47 | 98.5221 | 0.00571 | 7.5548 | 231.0335 | 205.5471 | 14.25828 | – |
| 2026 Apr 10 17:58 | 2026 Apr 08 07:21:47 | 98.5221 | 0.00571 | 7.5548 | 231.0335 | 205.5471 | 14.25828 | – |
| 2026 Apr 09 18:01 | 2026 Apr 08 07:21:47 | 98.5221 | 0.00571 | 7.5548 | 231.0335 | 205.5471 | 14.25828 | – |
| 2026 Apr 08 17:57 | 2026 Apr 08 07:21:47 | 98.5221 | 0.00571 | 7.5548 | 231.0335 | 205.5471 | 14.25828 | – |